createdAt,value
2023-01-17T00:00:20.467Z,98689.47
2023-01-17T00:03:24.190Z,98696.91
2023-01-17T00:06:45.063Z,98699.34
2023-01-17T00:09:57.280Z,98689.16
2023-01-17T00:13:02.679Z,98687.41
2023-01-17T00:16:07.207Z,98688.56
2023-01-17T00:19:28.628Z,98686.75
2023-01-17T00:22:50.549Z,98663.63
2023-01-17T00:26:05.190Z,98677.13
2023-01-17T00:29:07.662Z,98674.28
2023-01-17T00:32:09.967Z,98663.66
2023-01-17T00:35:12.274Z,98669.59
2023-01-17T00:38:16.430Z,98664.50
2023-01-17T00:41:20.380Z,98665.88
2023-01-17T00:44:41.542Z,98651.97
2023-01-17T00:48:04.390Z,98679.63
2023-01-17T00:51:25.198Z,98680.03
2023-01-17T00:54:45.823Z,98663.53
2023-01-17T00:58:08.387Z,98648.59
2023-01-17T01:01:29.785Z,98646.25
2023-01-17T01:04:50.825Z,98635.88
2023-01-17T01:08:11.941Z,98628.28
2023-01-17T01:11:35.686Z,98615.44
2023-01-17T01:14:58.521Z,98625.59
2023-01-17T01:18:24.808Z,98627.28
2023-01-17T01:21:45.946Z,98633.66
2023-01-17T01:25:06.869Z,98609.72
2023-01-17T01:28:30.423Z,98591.44
2023-01-17T01:31:52.850Z,98596.16
2023-01-17T01:34:56.424Z,98626.75
2023-01-17T01:37:59.949Z,98598.47
2023-01-17T01:41:03.626Z,98598.75
2023-01-17T01:44:27.295Z,98589.13
2023-01-17T01:47:37.428Z,98590.06
2023-01-17T01:50:40.973Z,98592.66
2023-01-17T01:53:48.311Z,98592.75
2023-01-17T01:56:55.404Z,98598.50
2023-01-17T02:00:03.356Z,98598.94
2023-01-17T02:03:20.828Z,98608.88
2023-01-17T02:06:31.701Z,98606.94
2023-01-17T02:09:35.575Z,98609.53
2023-01-17T02:12:39.866Z,98614.47
2023-01-17T02:15:51.635Z,98600.91
2023-01-17T02:19:10.312Z,98616.13
2023-01-17T02:22:31.431Z,98599.59
2023-01-17T02:26:03.056Z,98591.53
2023-01-17T02:29:31.541Z,98620.56
2023-01-17T02:32:48.185Z,98605.75
2023-01-17T02:35:59.880Z,98582.03
2023-01-17T02:39:10.715Z,98573.94
2023-01-17T02:42:18.756Z,98577.31
2023-01-17T02:45:23.753Z,98600.16
2023-01-17T02:48:32.882Z,98586.53
2023-01-17T02:51:49.252Z,98558.72
2023-01-17T02:55:15.520Z,98545.88
2023-01-17T02:58:32.322Z,98568.63
2023-01-17T03:01:45.686Z,98577.31
2023-01-17T03:04:55.651Z,98583.66
2023-01-17T03:08:00.246Z,98560.44
2023-01-17T03:11:03.843Z,98534.63
2023-01-17T03:14:07.388Z,98545.78
2023-01-17T03:17:11.205Z,98554.38
2023-01-17T03:20:16.667Z,98545.28
2023-01-17T03:23:20.463Z,98517.53
2023-01-17T03:26:24.064Z,98508.97
2023-01-17T03:29:27.630Z,98514.16
2023-01-17T03:32:31.350Z,98520.56
2023-01-17T03:35:36.527Z,98508.31
2023-01-17T03:38:40.411Z,98513.00
2023-01-17T03:41:44.064Z,98520.66
2023-01-17T03:44:47.557Z,98518.22
2023-01-17T03:47:51.002Z,98518.81
2023-01-17T03:50:56.063Z,98510.09
2023-01-17T03:53:59.661Z,98503.25
2023-01-17T03:57:03.196Z,98480.31
2023-01-17T04:00:08.222Z,98487.00
2023-01-17T04:03:11.863Z,98494.69
2023-01-17T04:06:16.903Z,98530.75
2023-01-17T04:09:20.471Z,98502.19
2023-01-17T04:12:24.153Z,98520.84
2023-01-17T04:15:27.684Z,98500.13
2023-01-17T04:18:31.411Z,98496.38
2023-01-17T04:21:36.381Z,98494.88
2023-01-17T04:24:39.947Z,98471.81
2023-01-17T04:27:43.620Z,98473.38
2023-01-17T04:30:47.225Z,98494.59
2023-01-17T04:33:50.812Z,98491.22
2023-01-17T04:36:55.768Z,98512.44
2023-01-17T04:39:59.336Z,98483.53
2023-01-17T04:43:02.920Z,98492.97
2023-01-17T04:46:10.281Z,98479.72
2023-01-17T04:49:14.193Z,98447.53
2023-01-17T04:52:20.797Z,98450.59
2023-01-17T04:55:24.371Z,98473.03
2023-01-17T04:58:28.218Z,98479.91
2023-01-17T05:01:32.148Z,98508.72
2023-01-17T05:04:35.793Z,98487.22
2023-01-17T05:07:41.199Z,98490.94
2023-01-17T05:10:47.290Z,98482.63
2023-01-17T05:13:51.419Z,98496.53
2023-01-17T05:16:55.717Z,98509.97
2023-01-17T05:19:59.659Z,98487.50
2023-01-17T05:23:04.743Z,98502.59
2023-01-17T05:26:08.534Z,98502.59
2023-01-17T05:29:12.501Z,98501.59
2023-01-17T05:32:16.237Z,98513.06
2023-01-17T05:35:21.219Z,98503.56
2023-01-17T05:38:26.405Z,98535.97
2023-01-17T05:41:30.066Z,98501.13
2023-01-17T05:44:33.772Z,98543.19
2023-01-17T05:47:37.578Z,98522.56
2023-01-17T05:50:41.311Z,98552.97
2023-01-17T05:53:46.398Z,98532.41
2023-01-17T05:56:50.098Z,98524.63
2023-01-17T05:59:53.879Z,98510.41
2023-01-17T06:02:59.056Z,98548.66
2023-01-17T06:06:02.920Z,98520.09
2023-01-17T06:09:08.249Z,98518.66
2023-01-17T06:12:12.059Z,98518.34
2023-01-17T06:15:18.019Z,98542.50
2023-01-17T06:18:21.707Z,98556.25
2023-01-17T06:21:25.478Z,98574.59
2023-01-17T06:24:30.778Z,98569.03
2023-01-17T06:27:34.560Z,98556.56
2023-01-17T06:30:38.445Z,98556.97
2023-01-17T06:33:42.259Z,98557.09
2023-01-17T06:36:46.228Z,98552.31
2023-01-17T06:39:51.639Z,98552.38
2023-01-17T06:42:55.593Z,98542.94
2023-01-17T06:45:59.459Z,98528.97
2023-01-17T06:49:03.378Z,98547.78
2023-01-17T06:52:07.158Z,98530.69
2023-01-17T06:55:12.600Z,98531.63
2023-01-17T06:58:16.423Z,98516.63
2023-01-17T07:01:20.853Z,98544.19
2023-01-17T07:04:24.671Z,98518.16
2023-01-17T07:07:31.864Z,98510.16
2023-01-17T07:10:38.884Z,98518.00
2023-01-17T07:13:43.001Z,98526.66
2023-01-17T07:16:49.368Z,98519.94
2023-01-17T07:19:54.429Z,98504.00
2023-01-17T07:22:58.422Z,98531.13
2023-01-17T07:26:04.298Z,98512.22
2023-01-17T07:29:08.466Z,98551.13
2023-01-17T07:32:12.290Z,98549.16
2023-01-17T07:35:16.228Z,98529.81
2023-01-17T07:38:21.481Z,98535.16
2023-01-17T07:41:27.227Z,98538.19
2023-01-17T07:44:30.998Z,98489.88
2023-01-17T07:47:34.999Z,98513.84
2023-01-17T07:50:39.173Z,98566.66
2023-01-17T07:53:43.019Z,98539.03
2023-01-17T07:56:48.337Z,98549.50
2023-01-17T07:59:52.478Z,98546.72
2023-01-17T08:02:58.862Z,98528.09
2023-01-17T08:06:02.818Z,98526.88
2023-01-17T08:09:06.902Z,98521.00
2023-01-17T08:12:12.371Z,98533.03
2023-01-17T08:15:16.922Z,98564.25
2023-01-17T08:18:20.741Z,98555.69
2023-01-17T08:21:24.990Z,98572.28
2023-01-17T08:24:28.861Z,98573.84
2023-01-17T08:27:35.554Z,98563.78
2023-01-17T08:30:40.278Z,98554.88
2023-01-17T08:33:44.163Z,98548.91
2023-01-17T08:36:48.218Z,98538.03
2023-01-17T08:39:51.978Z,98525.81
2023-01-17T08:42:58.620Z,98542.75
2023-01-17T08:46:02.994Z,98513.16
2023-01-17T08:49:06.900Z,98535.66
2023-01-17T08:52:13.240Z,98535.88
2023-01-17T08:55:17.523Z,98559.91
2023-01-17T08:58:23.566Z,98537.00
2023-01-17T09:01:27.767Z,98534.19
2023-01-17T09:04:31.725Z,98539.31
2023-01-17T09:07:35.784Z,98526.94
2023-01-17T09:10:39.624Z,98548.75
2023-01-17T09:13:45.150Z,98557.53
2023-01-17T09:16:49.587Z,98566.56
2023-01-17T09:19:53.416Z,98571.16
2023-01-17T09:22:57.442Z,98570.16
2023-01-17T09:26:01.761Z,98581.97
2023-01-17T09:29:07.099Z,98576.19
2023-01-17T09:32:10.959Z,98572.25
2023-01-17T09:35:14.820Z,98563.81
2023-01-17T09:38:18.663Z,98560.06
2023-01-17T09:41:28.249Z,98566.09
2023-01-17T09:44:43.171Z,98561.34
2023-01-17T09:47:51.396Z,98572.88
2023-01-17T09:51:00.398Z,98549.88
2023-01-17T09:54:04.507Z,98532.53
2023-01-17T09:57:30.518Z,98531.94
2023-01-17T10:00:44.410Z,98530.94
2023-01-17T10:04:11.907Z,98507.84
2023-01-17T10:07:26.499Z,98507.53
2023-01-17T10:10:40.398Z,98524.44
2023-01-17T10:13:53.718Z,98523.16
2023-01-17T10:17:08.856Z,98491.38
2023-01-17T10:20:26.979Z,98493.78
2023-01-17T10:23:58.247Z,98496.06
2023-01-17T10:27:04.699Z,98514.97
2023-01-17T10:30:19.139Z,98499.69
2023-01-17T10:33:30.011Z,98502.31
2023-01-17T10:36:39.473Z,98497.09
2023-01-17T10:39:46.399Z,98496.94
2023-01-17T10:42:57.771Z,98479.16
2023-01-17T10:46:01.665Z,98472.97
2023-01-17T10:49:07.179Z,98484.38
2023-01-17T10:52:25.778Z,98490.59
2023-01-17T10:55:40.199Z,98490.91
2023-01-17T10:58:44.104Z,98488.31
2023-01-17T11:01:50.298Z,98493.19
2023-01-17T11:04:57.425Z,98492.53
2023-01-17T11:08:03.080Z,98486.84
2023-01-17T11:11:07.100Z,98484.56
2023-01-17T11:14:20.159Z,98477.03
2023-01-17T11:17:24.220Z,98455.50
2023-01-17T11:20:36.565Z,98473.97
2023-01-17T11:23:43.699Z,98456.34
2023-01-17T11:26:49.938Z,98448.16
2023-01-17T11:30:06.762Z,98425.41
2023-01-17T11:33:34.700Z,98434.66
2023-01-17T11:36:40.158Z,98426.91
2023-01-17T11:39:44.489Z,98441.66
2023-01-17T11:42:48.498Z,98432.03
2023-01-17T11:46:17.250Z,98439.66
2023-01-17T11:49:25.917Z,98440.88
2023-01-17T11:52:37.745Z,98433.91
2023-01-17T11:55:41.759Z,98444.19
2023-01-17T11:58:47.501Z,98433.13
2023-01-17T12:02:04.670Z,98431.06
2023-01-17T12:05:20.069Z,98423.09
2023-01-17T12:08:46.041Z,98408.41
2023-01-17T12:12:16.184Z,98413.59
2023-01-17T12:15:34.440Z,98400.00
2023-01-17T12:18:50.196Z,98392.88
2023-01-17T12:22:11.748Z,98393.06
2023-01-17T12:25:38.259Z,98391.56
2023-01-17T12:29:07.219Z,98396.06
2023-01-17T12:32:34.880Z,98394.44
2023-01-17T12:35:43.341Z,98392.94
2023-01-17T12:38:49.540Z,98389.72
2023-01-17T12:42:01.592Z,98376.19
2023-01-17T12:45:09.714Z,98379.47
2023-01-17T12:48:17.442Z,98382.50
2023-01-17T12:51:28.031Z,98375.03
2023-01-17T12:54:39.901Z,98354.00
2023-01-17T12:57:51.458Z,98363.06
2023-01-17T13:01:02.970Z,98367.13
2023-01-17T13:04:21.467Z,98363.97
2023-01-17T13:07:34.278Z,98353.47
2023-01-17T13:10:46.417Z,98354.66
2023-01-17T13:13:53.640Z,98351.22
2023-01-17T13:17:00.409Z,98362.44
2023-01-17T13:20:16.339Z,98358.91
2023-01-17T13:23:30.918Z,98372.97
2023-01-17T13:26:48.987Z,98377.19
2023-01-17T13:30:12.601Z,98376.19
2023-01-17T13:33:37.425Z,98369.31
2023-01-17T13:36:53.119Z,98368.56
2023-01-17T13:40:20.280Z,98380.88
2023-01-17T13:43:27.158Z,98377.63
2023-01-17T13:46:53.821Z,98365.03
2023-01-17T13:49:57.600Z,98358.84
2023-01-17T13:53:06.097Z,98363.34
2023-01-17T13:56:14.962Z,98375.78
2023-01-17T13:59:30.558Z,98345.63
2023-01-17T14:02:42.476Z,98351.72
2023-01-17T14:05:50.462Z,98372.94
2023-01-17T14:08:54.722Z,98370.47
2023-01-17T14:12:05.666Z,98356.28
2023-01-17T14:15:22.507Z,98387.56
2023-01-17T14:18:35.529Z,98383.84
2023-01-17T14:21:39.450Z,98383.09
2023-01-17T14:25:00.239Z,98380.31
2023-01-17T14:28:08.122Z,98382.41
2023-01-17T14:31:14.217Z,98383.56
2023-01-17T14:34:23.541Z,98361.16
2023-01-17T14:37:39.638Z,98367.53
2023-01-17T14:40:52.823Z,98345.38
2023-01-17T14:43:56.860Z,98344.97
2023-01-17T14:47:01.020Z,98341.56
2023-01-17T14:50:22.543Z,98344.25
2023-01-17T14:53:28.416Z,98339.84
2023-01-17T14:56:33.285Z,98335.88
2023-01-17T14:59:37.118Z,98341.44
2023-01-17T15:02:44.561Z,98372.69
2023-01-17T15:05:52.792Z,98344.81
2023-01-17T15:08:56.679Z,98338.00
2023-01-17T15:12:01.101Z,98345.47
2023-01-17T15:15:05.139Z,98342.25
2023-01-17T15:18:21.209Z,98335.44
2023-01-17T15:21:29.619Z,98349.81
2023-01-17T15:24:41.642Z,98371.25
2023-01-17T15:27:45.510Z,98350.28
2023-01-17T15:31:06.616Z,98338.75
2023-01-17T15:34:16.066Z,98392.19
2023-01-17T15:37:30.032Z,98367.66
2023-01-17T15:40:37.879Z,98354.41
2023-01-17T15:43:43.539Z,98359.78
2023-01-17T15:46:47.439Z,98361.69
2023-01-17T15:49:53.066Z,98369.59
2023-01-17T15:53:01.150Z,98390.56
2023-01-17T15:56:23.750Z,98378.63
2023-01-17T15:59:40.719Z,98383.84
2023-01-17T16:02:45.664Z,98386.31
2023-01-17T16:05:50.102Z,98389.78
2023-01-17T16:08:56.362Z,98380.09
2023-01-17T16:12:00.991Z,98381.84
2023-01-17T16:15:12.871Z,98392.94
2023-01-17T16:18:20.447Z,98405.53
2023-01-17T16:21:27.085Z,98377.00
2023-01-17T16:24:33.019Z,98379.00
2023-01-17T16:27:36.898Z,98400.09
2023-01-17T16:30:40.878Z,98393.41
2023-01-17T16:33:46.205Z,98377.66
2023-01-17T16:36:55.340Z,98366.56
2023-01-17T16:40:00.674Z,98389.41
2023-01-17T16:43:04.620Z,98390.59
2023-01-17T16:46:09.039Z,98374.63
2023-01-17T16:49:12.998Z,98378.06
2023-01-17T16:52:16.862Z,98376.09
2023-01-17T16:55:24.574Z,98369.94
2023-01-17T16:58:28.358Z,98372.84
2023-01-17T17:01:32.357Z,98379.22
2023-01-17T17:04:36.239Z,98382.22
2023-01-17T17:07:44.263Z,98372.88
2023-01-17T17:10:49.579Z,98366.97
2023-01-17T17:13:54.070Z,98357.16
2023-01-17T17:17:00.791Z,98333.69
2023-01-17T17:20:04.758Z,98353.84
2023-01-17T17:23:10.164Z,98350.31
2023-01-17T17:26:15.398Z,98342.22
2023-01-17T17:29:19.278Z,98337.13
2023-01-17T17:32:23.659Z,98327.69
2023-01-17T17:35:28.318Z,98331.59
2023-01-17T17:38:35.263Z,98327.81
2023-01-17T17:41:44.018Z,98345.28
2023-01-17T17:44:47.819Z,98328.22
2023-01-17T17:47:51.830Z,98316.63
2023-01-17T17:50:59.766Z,98314.16
2023-01-17T17:54:05.812Z,98340.94
2023-01-17T17:57:11.223Z,98323.25
2023-01-17T18:00:15.841Z,98306.31
2023-01-17T18:03:20.919Z,98299.84
2023-01-17T18:06:25.419Z,98343.66
2023-01-17T18:09:29.262Z,98315.56
2023-01-17T18:12:34.697Z,98290.78
2023-01-17T18:15:38.438Z,98292.38
2023-01-17T18:18:45.462Z,98290.44
2023-01-17T18:21:50.607Z,98297.59
2023-01-17T18:24:54.341Z,98284.41
2023-01-17T18:27:59.681Z,98298.91
2023-01-17T18:31:08.161Z,98276.72
2023-01-17T18:34:13.694Z,98283.03
2023-01-17T18:37:17.582Z,98279.97
2023-01-17T18:40:21.467Z,98267.59
2023-01-17T18:43:27.938Z,98252.47
2023-01-17T18:46:31.937Z,98269.59
2023-01-17T18:49:35.838Z,98224.75
2023-01-17T18:52:40.055Z,98248.66
2023-01-17T18:55:44.037Z,98236.31
2023-01-17T18:58:50.267Z,98230.84
2023-01-17T19:01:54.416Z,98220.69
2023-01-17T19:04:58.243Z,98217.34
2023-01-17T19:08:02.097Z,98210.41
2023-01-17T19:11:06.559Z,98206.72
2023-01-17T19:14:12.788Z,98221.19
2023-01-17T19:17:16.818Z,98197.00
2023-01-17T19:20:20.579Z,98195.91
2023-01-17T19:23:24.544Z,98234.81
2023-01-17T19:26:30.174Z,98246.88
2023-01-17T19:29:35.529Z,98250.22
2023-01-17T19:32:39.399Z,98224.38
2023-01-17T19:35:43.178Z,98232.78
2023-01-17T19:39:03.053Z,98243.59
2023-01-17T19:42:10.738Z,98236.53
2023-01-17T19:45:16.489Z,98220.44
2023-01-17T19:48:20.339Z,98228.00
2023-01-17T19:51:25.321Z,98219.03
2023-01-17T19:54:29.162Z,98209.91
2023-01-17T19:57:35.198Z,98237.91
2023-01-17T20:00:46.404Z,98223.69
2023-01-17T20:03:52.409Z,98230.19
2023-01-17T20:06:56.324Z,98228.91
2023-01-17T20:10:00.120Z,98188.94
2023-01-17T20:13:04.958Z,98205.50
2023-01-17T20:16:12.026Z,98204.63
2023-01-17T20:19:15.902Z,98228.38
2023-01-17T20:22:19.798Z,98215.22
2023-01-17T20:25:23.560Z,98226.38
2023-01-17T20:28:28.458Z,98236.34
2023-01-17T20:31:38.330Z,98252.69
2023-01-17T20:34:44.086Z,98227.91
2023-01-17T20:37:52.280Z,98210.66
2023-01-17T20:40:56.559Z,98224.72
2023-01-17T20:44:01.737Z,98221.88
2023-01-17T20:47:07.119Z,98235.41
2023-01-17T20:50:11.823Z,98230.81
2023-01-17T20:53:16.318Z,98231.13
2023-01-17T20:56:20.464Z,98235.97
2023-01-17T20:59:24.817Z,98240.13
2023-01-17T21:02:30.287Z,98224.13
2023-01-17T21:05:34.178Z,98200.00
2023-01-17T21:08:39.727Z,98190.09
2023-01-17T21:11:43.677Z,98202.69
2023-01-17T21:14:47.582Z,98220.38
2023-01-17T21:17:52.909Z,98241.91
2023-01-17T21:20:56.801Z,98231.69
2023-01-17T21:24:01.536Z,98228.44
2023-01-17T21:27:05.661Z,98230.56
2023-01-17T21:30:11.479Z,98216.38
2023-01-17T21:33:16.723Z,98226.72
2023-01-17T21:36:21.241Z,98235.16
2023-01-17T21:39:25.418Z,98231.84
2023-01-17T21:42:29.279Z,98232.59
2023-01-17T21:45:33.359Z,98243.91
2023-01-17T21:48:39.706Z,98233.81
2023-01-17T21:52:01.718Z,98222.56
2023-01-17T21:55:23.238Z,98218.44
2023-01-17T21:58:45.207Z,98205.63
2023-01-17T22:01:49.129Z,98209.59
2023-01-17T22:04:56.439Z,98198.00
2023-01-17T22:08:15.880Z,98197.66
2023-01-17T22:11:21.658Z,98185.75
2023-01-17T22:14:25.499Z,98176.13
2023-01-17T22:17:31.300Z,98179.19
2023-01-17T22:20:40.162Z,98185.75
2023-01-17T22:23:47.839Z,98176.97
2023-01-17T22:26:51.699Z,98197.28
2023-01-17T22:29:55.458Z,98196.47
2023-01-17T22:32:59.831Z,98192.44
2023-01-17T22:36:05.963Z,98181.44
2023-01-17T22:39:11.221Z,98174.06
2023-01-17T22:42:16.798Z,98157.31
2023-01-17T22:45:20.519Z,98177.13
2023-01-17T22:48:24.381Z,98180.78
2023-01-17T22:51:30.337Z,98161.81
2023-01-17T22:54:34.018Z,98156.88
2023-01-17T22:57:38.162Z,98150.47
2023-01-17T23:00:42.105Z,98152.91
2023-01-17T23:03:46.780Z,98156.00
2023-01-17T23:06:52.238Z,98152.66
2023-01-17T23:09:55.967Z,98152.09
2023-01-17T23:12:59.945Z,98162.63
2023-01-17T23:16:23.926Z,98161.56
2023-01-17T23:19:30.338Z,98164.06
2023-01-17T23:22:36.259Z,98154.19
2023-01-17T23:25:40.078Z,98165.97
2023-01-17T23:28:42.802Z,98155.16
2023-01-17T23:31:46.700Z,98151.56
2023-01-17T23:34:50.652Z,98154.00
2023-01-17T23:38:13.302Z,98143.47
2023-01-17T23:41:46.199Z,98147.31
2023-01-17T23:44:49.999Z,98146.59
2023-01-17T23:47:53.939Z,98144.97
2023-01-17T23:50:59.849Z,98151.75
2023-01-17T23:54:06.552Z,98155.19
2023-01-17T23:57:10.356Z,98153.25
